createdAt,value
2022-10-29T00:00:43.489Z,72.20
2022-10-29T00:03:10.539Z,70.90
2022-10-29T00:05:37.332Z,71.00
2022-10-29T00:08:04.246Z,70.80
2022-10-29T00:10:30.976Z,70.80
2022-10-29T00:13:01.324Z,70.70
2022-10-29T00:15:28.087Z,72.10
2022-10-29T00:17:55.078Z,70.70
2022-10-29T00:20:21.905Z,70.70
2022-10-29T00:22:48.553Z,70.70
2022-10-29T00:25:15.364Z,70.80
2022-10-29T00:27:42.127Z,70.90
2022-10-29T00:30:09.523Z,70.90
2022-10-29T00:32:36.279Z,70.90
2022-10-29T00:35:02.953Z,70.80
2022-10-29T00:37:29.670Z,71.00
2022-10-29T00:39:56.328Z,70.80
2022-10-29T00:42:23.026Z,70.80
2022-10-29T00:44:51.193Z,70.60
2022-10-29T00:47:26.484Z,70.80
2022-10-29T00:50:06.582Z,72.40
2022-10-29T00:52:36.332Z,72.70
2022-10-29T00:55:07.079Z,71.80
2022-10-29T00:57:47.036Z,72.20
2022-10-29T01:00:14.671Z,72.80
2022-10-29T01:02:43.509Z,71.30
2022-10-29T01:05:15.065Z,71.70
2022-10-29T01:07:42.420Z,72.10
2022-10-29T01:10:10.670Z,71.00
2022-10-29T01:12:51.628Z,71.30
2022-10-29T01:15:32.114Z,72.50
2022-10-29T01:18:20.068Z,72.50
2022-10-29T01:21:09.927Z,72.10
2022-10-29T01:23:59.017Z,72.40
2022-10-29T01:27:14.045Z,72.30
2022-10-29T01:29:46.352Z,72.70
2022-10-29T01:32:39.985Z,71.90
2022-10-29T01:35:13.390Z,72.70
2022-10-29T01:37:42.827Z,71.10
2022-10-29T01:40:21.616Z,70.80
2022-10-29T01:43:04.072Z,72.90
2022-10-29T01:45:40.203Z,72.20
2022-10-29T01:48:14.157Z,72.60
2022-10-29T01:50:45.000Z,72.90
2022-10-29T01:53:12.443Z,72.30
2022-10-29T01:55:39.213Z,71.50
2022-10-29T01:58:07.085Z,71.10
2022-10-29T02:01:12.526Z,71.60
2022-10-29T02:04:27.726Z,72.50
2022-10-29T02:07:07.350Z,72.80
2022-10-29T02:09:38.676Z,70.80
2022-10-29T02:12:29.310Z,71.90
2022-10-29T02:15:05.574Z,72.80
2022-10-29T02:17:34.219Z,72.30
2022-10-29T02:20:10.483Z,72.20
2022-10-29T02:22:37.418Z,73.00
2022-10-29T02:25:05.578Z,71.80
2022-10-29T02:27:32.689Z,72.30
2022-10-29T02:29:59.479Z,71.90
2022-10-29T02:32:26.503Z,71.50
2022-10-29T02:34:53.162Z,71.50
2022-10-29T02:37:19.835Z,71.60
2022-10-29T02:39:46.540Z,71.50
2022-10-29T02:42:13.195Z,71.50
2022-10-29T02:44:39.907Z,71.60
2022-10-29T02:47:06.558Z,71.50
2022-10-29T02:49:33.221Z,71.40
2022-10-29T02:51:59.888Z,71.50
2022-10-29T02:54:26.559Z,71.40
2022-10-29T02:56:53.280Z,71.50
2022-10-29T02:59:19.932Z,71.60
2022-10-29T03:01:46.755Z,71.60
2022-10-29T03:04:13.827Z,71.80
2022-10-29T03:06:40.512Z,72.00
2022-10-29T03:09:07.176Z,71.90
2022-10-29T03:11:34.102Z,71.80
2022-10-29T03:14:00.744Z,71.80
2022-10-29T03:16:27.456Z,72.00
2022-10-29T03:18:54.135Z,72.10
2022-10-29T03:21:20.835Z,72.10
2022-10-29T03:23:47.485Z,72.20
2022-10-29T03:26:14.190Z,72.20
2022-10-29T03:28:40.902Z,72.20
2022-10-29T03:31:07.700Z,72.00
2022-10-29T03:33:35.429Z,72.20
2022-10-29T03:36:05.445Z,72.90
2022-10-29T03:38:33.121Z,73.00
2022-10-29T03:40:59.996Z,72.70
2022-10-29T03:43:26.776Z,72.40
2022-10-29T03:45:55.253Z,72.50
2022-10-29T03:48:23.078Z,73.20
2022-10-29T03:50:57.084Z,72.90
2022-10-29T03:53:25.822Z,74.40
2022-10-29T03:55:53.899Z,73.70
2022-10-29T03:58:21.258Z,72.90
2022-10-29T04:00:59.766Z,72.60
2022-10-29T04:03:28.410Z,74.90
2022-10-29T04:05:55.688Z,73.20
2022-10-29T04:08:22.546Z,73.00
2022-10-29T04:10:50.792Z,73.10
2022-10-29T04:13:18.663Z,73.70
2022-10-29T04:15:46.201Z,73.50
2022-10-29T04:18:13.589Z,73.40
2022-10-29T04:20:56.390Z,73.40
2022-10-29T04:29:02.311Z,73.10
2022-10-29T04:31:29.022Z,72.80
2022-10-29T04:33:55.947Z,72.90
2022-10-29T04:36:22.610Z,73.60
2022-10-29T04:38:50.981Z,72.90
2022-10-29T04:41:17.674Z,73.80
2022-10-29T04:43:44.363Z,72.90
2022-10-29T04:46:11.274Z,73.00
2022-10-29T04:48:38.292Z,73.10
2022-10-29T04:51:05.412Z,72.80
2022-10-29T04:53:32.102Z,73.20
2022-10-29T04:56:01.024Z,72.70
2022-10-29T04:58:28.112Z,73.20
2022-10-29T05:01:00.563Z,72.90
2022-10-29T05:03:27.340Z,72.50
2022-10-29T05:05:54.047Z,72.40
2022-10-29T05:08:21.490Z,72.50
2022-10-29T05:10:48.146Z,72.40
2022-10-29T05:13:15.047Z,72.40
2022-10-29T05:15:41.874Z,72.60
2022-10-29T05:18:10.122Z,72.60
2022-10-29T05:20:36.824Z,73.50
2022-10-29T05:23:08.415Z,73.00
2022-10-29T05:25:36.710Z,73.80
2022-10-29T05:28:05.680Z,73.60
2022-10-29T05:30:33.226Z,73.90
2022-10-29T05:33:00.156Z,73.40
2022-10-29T05:35:27.379Z,73.10
2022-10-29T05:37:55.209Z,73.40
2022-10-29T05:40:23.818Z,73.50
2022-10-29T05:42:50.503Z,73.60
2022-10-29T05:45:17.547Z,73.00
2022-10-29T05:47:44.535Z,73.00
2022-10-29T05:50:12.316Z,73.20
2022-10-29T05:52:39.974Z,73.50
2022-10-29T05:55:07.190Z,73.20
2022-10-29T05:57:33.938Z,73.20
2022-10-29T06:00:00.740Z,73.00
2022-10-29T06:02:27.509Z,72.80
2022-10-29T06:04:54.244Z,72.90
2022-10-29T06:07:20.931Z,73.00
2022-10-29T06:09:47.603Z,72.90
2022-10-29T06:12:14.251Z,72.90
2022-10-29T06:14:40.914Z,72.90
2022-10-29T06:17:07.597Z,72.90
2022-10-29T06:19:34.332Z,73.00
2022-10-29T06:22:01.030Z,72.90
2022-10-29T06:24:27.821Z,73.10
2022-10-29T06:26:54.769Z,73.20
2022-10-29T06:29:21.501Z,73.00
2022-10-29T06:31:48.178Z,73.00
2022-10-29T06:34:15.055Z,73.00
2022-10-29T06:36:41.868Z,73.00
2022-10-29T06:39:08.728Z,73.10
2022-10-29T06:41:35.400Z,73.20
2022-10-29T06:44:02.064Z,72.90
2022-10-29T06:46:28.718Z,72.90
2022-10-29T06:48:55.493Z,72.90
2022-10-29T06:53:54.722Z,72.80
2022-10-29T06:56:21.979Z,72.90
2022-10-29T06:58:48.636Z,73.20
2022-10-29T07:01:15.369Z,73.10
2022-10-29T07:03:42.068Z,72.90
2022-10-29T07:06:08.792Z,72.90
2022-10-29T07:08:35.480Z,73.00
2022-10-29T07:11:02.915Z,73.00
2022-10-29T07:13:29.572Z,73.10
2022-10-29T07:15:56.287Z,73.10
2022-10-29T07:18:22.921Z,73.20
2022-10-29T07:20:49.619Z,73.10
2022-10-29T07:23:16.341Z,73.40
2022-10-29T07:25:43.175Z,73.30
2022-10-29T07:28:20.735Z,73.30
2022-10-29T07:30:48.394Z,74.90
2022-10-29T07:33:15.784Z,73.40
2022-10-29T07:35:43.142Z,73.50
2022-10-29T07:38:11.906Z,73.50
2022-10-29T07:40:48.290Z,73.70
2022-10-29T07:43:15.532Z,74.50
2022-10-29T07:45:46.754Z,73.40
2022-10-29T07:48:13.457Z,74.20
2022-10-29T07:50:40.449Z,73.40
2022-10-29T07:53:07.903Z,73.30
2022-10-29T07:55:34.809Z,73.30
2022-10-29T07:58:04.231Z,73.20
2022-10-29T08:00:33.276Z,74.50
2022-10-29T08:03:00.155Z,73.60
2022-10-29T08:05:28.824Z,73.10
2022-10-29T08:07:56.733Z,73.60
2022-10-29T08:10:25.259Z,73.40
2022-10-29T08:12:54.013Z,73.40
2022-10-29T08:15:21.803Z,73.20
2022-10-29T08:17:48.791Z,72.70
2022-10-29T08:20:16.072Z,72.50
2022-10-29T08:22:43.598Z,72.40
2022-10-29T08:25:11.200Z,72.40
2022-10-29T08:27:37.980Z,72.40
2022-10-29T08:30:06.447Z,72.50
2022-10-29T08:32:33.200Z,72.60
2022-10-29T08:34:59.883Z,72.10
2022-10-29T08:37:26.865Z,72.00
2022-10-29T08:39:53.584Z,71.90
2022-10-29T08:42:42.245Z,71.90
2022-10-29T08:45:23.314Z,72.30
2022-10-29T08:47:53.117Z,72.50
2022-10-29T08:50:41.055Z,71.20
2022-10-29T08:53:23.202Z,72.40
2022-10-29T08:55:50.719Z,71.40
2022-10-29T08:58:24.233Z,70.50
2022-10-29T09:00:56.623Z,70.90
2022-10-29T09:03:25.536Z,70.30
2022-10-29T09:06:13.215Z,69.60
2022-10-29T09:09:10.258Z,69.70
2022-10-29T09:11:58.739Z,69.90
2022-10-29T09:14:43.104Z,70.00
2022-10-29T09:17:11.585Z,69.70
2022-10-29T09:20:14.859Z,69.40
2022-10-29T09:23:02.551Z,69.90
2022-10-29T09:25:51.591Z,70.00
2022-10-29T09:28:27.121Z,70.50
2022-10-29T09:31:31.491Z,69.90
2022-10-29T09:34:05.502Z,70.10
2022-10-29T09:36:33.325Z,69.70
2022-10-29T09:39:19.688Z,69.30
2022-10-29T09:41:51.956Z,69.50
2022-10-29T09:44:25.050Z,69.40
2022-10-29T09:47:14.941Z,69.70
2022-10-29T09:50:08.691Z,69.90
2022-10-29T09:52:39.914Z,69.50
2022-10-29T09:55:11.173Z,69.40
2022-10-29T09:57:40.176Z,69.40
2022-10-29T10:00:16.392Z,69.10
2022-10-29T10:02:48.418Z,69.20
2022-10-29T10:05:16.232Z,69.10
2022-10-29T10:08:03.006Z,68.60
2022-10-29T10:10:30.347Z,68.50
2022-10-29T10:13:02.738Z,68.50
2022-10-29T10:15:33.236Z,68.90
2022-10-29T10:18:05.656Z,69.30
2022-10-29T10:20:35.098Z,68.90
2022-10-29T10:23:03.282Z,68.70
2022-10-29T10:25:39.219Z,68.70
2022-10-29T10:28:30.254Z,68.50
2022-10-29T10:31:14.790Z,68.20
2022-10-29T10:33:52.763Z,68.10
2022-10-29T10:36:23.471Z,67.70
2022-10-29T10:38:56.159Z,67.40
2022-10-29T10:41:32.498Z,67.10
2022-10-29T10:44:01.792Z,67.30
2022-10-29T10:46:38.811Z,66.70
2022-10-29T10:49:16.921Z,67.80
2022-10-29T10:51:50.672Z,66.50
2022-10-29T10:54:37.951Z,66.60
2022-10-29T10:57:22.444Z,66.30
2022-10-29T11:00:04.429Z,66.00
2022-10-29T11:03:09.296Z,65.80
2022-10-29T11:05:40.453Z,66.00
2022-10-29T11:08:21.409Z,65.60
2022-10-29T11:10:59.138Z,65.50
2022-10-29T11:13:29.419Z,65.60
2022-10-29T11:16:04.769Z,65.50
2022-10-29T11:18:34.207Z,65.60
2022-10-29T11:21:20.406Z,65.00
2022-10-29T11:23:58.946Z,65.20
2022-10-29T11:26:52.799Z,64.80
2022-10-29T11:29:26.555Z,64.70
2022-10-29T11:32:07.107Z,64.40
2022-10-29T11:35:01.016Z,64.40
2022-10-29T11:37:58.226Z,64.20
2022-10-29T11:40:36.124Z,63.90
2022-10-29T11:43:08.495Z,63.90
2022-10-29T11:46:12.359Z,63.60
2022-10-29T11:48:45.175Z,64.00
2022-10-29T11:51:22.798Z,63.80
2022-10-29T11:54:11.647Z,63.70
2022-10-29T11:56:41.022Z,63.80
2022-10-29T11:59:11.770Z,63.60
2022-10-29T12:02:04.937Z,63.60
2022-10-29T12:05:04.363Z,64.20
2022-10-29T12:07:39.939Z,63.90
2022-10-29T12:10:41.985Z,63.70
2022-10-29T12:13:19.646Z,63.70
2022-10-29T12:16:04.847Z,63.10
2022-10-29T12:18:44.975Z,63.00
2022-10-29T12:21:17.835Z,62.30
2022-10-29T12:23:55.095Z,62.10
2022-10-29T12:26:31.678Z,61.70
2022-10-29T12:29:36.559Z,61.50
2022-10-29T12:32:20.866Z,61.40
2022-10-29T12:34:54.883Z,60.90
2022-10-29T12:37:42.393Z,60.50
2022-10-29T12:40:33.476Z,60.40
2022-10-29T12:43:06.696Z,60.10
2022-10-29T12:46:19.131Z,59.30
2022-10-29T12:48:57.031Z,58.80
2022-10-29T12:51:51.506Z,58.00
2022-10-29T12:54:42.425Z,58.10
2022-10-29T12:57:15.459Z,58.40
2022-10-29T12:59:43.737Z,58.50
2022-10-29T13:02:38.226Z,58.70
2022-10-29T13:05:10.387Z,58.80
2022-10-29T13:07:58.159Z,58.70
2022-10-29T13:10:26.318Z,59.10
2022-10-29T13:12:59.000Z,58.90
2022-10-29T13:15:37.641Z,59.50
2022-10-29T13:18:26.879Z,59.90
2022-10-29T13:20:54.921Z,60.30
2022-10-29T13:23:24.677Z,60.60
2022-10-29T13:25:55.444Z,61.00
2022-10-29T13:28:22.068Z,61.00
2022-10-29T13:30:51.176Z,61.00
2022-10-29T13:33:23.482Z,60.70
2022-10-29T13:35:55.072Z,60.60
2022-10-29T13:38:58.158Z,60.60
2022-10-29T13:41:42.823Z,61.00
2022-10-29T13:44:22.883Z,60.90
2022-10-29T13:47:17.789Z,61.10
2022-10-29T13:49:46.251Z,61.00
2022-10-29T13:52:21.464Z,61.00
2022-10-29T13:55:07.103Z,61.40
2022-10-29T13:57:42.216Z,61.50
2022-10-29T14:00:20.293Z,61.80
2022-10-29T14:03:24.143Z,63.00
2022-10-29T14:06:02.053Z,61.90
2022-10-29T14:08:38.447Z,61.50
2022-10-29T14:11:14.200Z,61.90
2022-10-29T14:13:48.651Z,62.40
2022-10-29T14:16:20.335Z,61.90
2022-10-29T14:18:48.726Z,62.00
2022-10-29T14:21:23.202Z,62.10
2022-10-29T14:24:00.060Z,62.50
2022-10-29T14:26:29.060Z,62.50
2022-10-29T14:28:56.223Z,62.70
2022-10-29T14:31:24.944Z,62.70
2022-10-29T14:34:01.379Z,63.10
2022-10-29T14:36:39.008Z,63.30
2022-10-29T14:39:12.017Z,63.60
2022-10-29T14:41:39.319Z,63.90
2022-10-29T14:44:16.056Z,63.70
2022-10-29T14:46:43.541Z,64.20
2022-10-29T14:49:16.160Z,64.20
2022-10-29T14:51:53.176Z,64.30
2022-10-29T14:54:24.440Z,64.50
2022-10-29T14:56:57.119Z,64.50
2022-10-29T14:59:29.153Z,64.70
2022-10-29T15:02:05.812Z,64.70
2022-10-29T15:04:47.682Z,65.10
2022-10-29T15:07:35.344Z,65.10
2022-10-29T15:10:09.435Z,65.20
2022-10-29T15:12:38.595Z,65.40
2022-10-29T15:15:22.967Z,65.40
2022-10-29T15:18:06.055Z,65.60
2022-10-29T15:20:47.565Z,65.60
2022-10-29T15:23:29.494Z,65.60
2022-10-29T15:26:03.494Z,65.80
2022-10-29T15:28:36.844Z,65.90
2022-10-29T15:31:04.880Z,65.90
2022-10-29T15:33:32.312Z,66.10
2022-10-29T15:36:02.769Z,66.40
2022-10-29T15:38:34.185Z,66.30
2022-10-29T15:41:19.131Z,66.30
2022-10-29T15:43:49.985Z,66.70
2022-10-29T15:46:25.004Z,66.50
2022-10-29T15:48:52.260Z,66.60
2022-10-29T15:51:24.568Z,66.30
2022-10-29T15:53:51.960Z,66.40
2022-10-29T15:56:18.722Z,66.20
2022-10-29T15:58:45.528Z,66.40
2022-10-29T16:01:15.005Z,66.20
2022-10-29T16:03:43.064Z,66.10
2022-10-29T16:06:12.089Z,66.00
2022-10-29T16:08:45.958Z,65.90
2022-10-29T16:11:16.659Z,65.90
2022-10-29T16:13:43.383Z,65.90
2022-10-29T16:16:15.983Z,65.80
2022-10-29T16:18:42.898Z,65.90
2022-10-29T16:21:14.188Z,66.10
2022-10-29T16:23:41.088Z,66.00
2022-10-29T16:26:15.171Z,66.00
2022-10-29T16:28:43.525Z,66.00
2022-10-29T16:31:23.152Z,66.10
2022-10-29T16:33:52.949Z,66.30
2022-10-29T16:36:19.920Z,66.80
2022-10-29T16:38:46.579Z,66.70
2022-10-29T16:41:15.011Z,66.40
2022-10-29T16:43:42.444Z,66.30
2022-10-29T16:46:09.799Z,66.30
2022-10-29T16:48:36.788Z,66.40
2022-10-29T16:51:03.974Z,66.40
2022-10-29T16:53:30.673Z,66.60
2022-10-29T16:55:57.314Z,66.80
2022-10-29T16:58:24.163Z,66.70
2022-10-29T17:00:50.978Z,66.70
2022-10-29T17:03:18.463Z,66.60
2022-10-29T17:05:46.354Z,67.80
2022-10-29T17:08:13.110Z,66.80
2022-10-29T17:10:39.877Z,67.20
2022-10-29T17:13:11.629Z,66.80
2022-10-29T17:15:41.923Z,66.80
2022-10-29T17:18:08.959Z,67.00
2022-10-29T17:20:35.649Z,66.90
2022-10-29T17:23:02.328Z,66.90
2022-10-29T17:25:28.976Z,66.90
2022-10-29T17:27:56.039Z,67.00
2022-10-29T17:30:22.867Z,67.00
2022-10-29T17:32:49.528Z,67.00
2022-10-29T17:35:16.208Z,67.20
2022-10-29T17:37:42.846Z,67.00
2022-10-29T17:40:10.296Z,67.70
2022-10-29T17:42:36.933Z,67.20
2022-10-29T17:45:03.796Z,67.20
2022-10-29T17:47:30.687Z,67.20
2022-10-29T17:49:57.384Z,67.10
2022-10-29T17:52:24.128Z,67.30
2022-10-29T17:54:50.808Z,67.40
2022-10-29T17:57:17.475Z,67.30
2022-10-29T17:59:44.111Z,67.30
2022-10-29T18:02:11.618Z,67.40
2022-10-29T18:04:38.593Z,67.40
2022-10-29T18:07:05.260Z,67.30
2022-10-29T18:09:31.917Z,67.30
2022-10-29T18:11:58.595Z,67.30
2022-10-29T18:14:25.243Z,67.20
2022-10-29T18:16:51.888Z,67.20
2022-10-29T18:19:18.515Z,67.20
2022-10-29T18:21:45.353Z,67.30
2022-10-29T18:24:12.178Z,67.30
2022-10-29T18:26:38.981Z,67.30
2022-10-29T18:29:10.798Z,67.30
2022-10-29T18:31:37.909Z,67.50
2022-10-29T18:34:07.453Z,67.40
2022-10-29T18:36:35.589Z,67.50
2022-10-29T18:39:03.958Z,67.40
2022-10-29T18:41:31.143Z,67.50
2022-10-29T18:43:58.708Z,67.50
2022-10-29T18:46:26.137Z,67.60
2022-10-29T18:48:53.123Z,67.50
2022-10-29T18:51:31.800Z,67.60
2022-10-29T18:53:59.314Z,67.80
2022-10-29T18:56:27.664Z,67.70
2022-10-29T18:58:55.756Z,67.70
2022-10-29T19:01:28.375Z,68.20
2022-10-29T19:03:57.236Z,68.00
2022-10-29T19:06:26.278Z,67.90
2022-10-29T19:08:53.656Z,68.10
2022-10-29T19:11:27.932Z,68.10
2022-10-29T19:13:56.864Z,68.20
2022-10-29T19:16:24.514Z,68.70
2022-10-29T19:19:21.157Z,68.50
2022-10-29T19:21:50.490Z,68.90
2022-10-29T19:24:17.450Z,68.30
2022-10-29T19:26:44.372Z,68.40
2022-10-29T19:29:11.811Z,68.40
2022-10-29T19:31:38.919Z,68.40
2022-10-29T19:34:07.614Z,68.50
2022-10-29T19:36:35.914Z,68.70
2022-10-29T19:39:03.115Z,68.80
2022-10-29T19:41:30.462Z,68.60
2022-10-29T19:44:01.870Z,68.80
2022-10-29T19:46:29.625Z,69.20
2022-10-29T19:48:58.261Z,69.00
2022-10-29T19:51:25.211Z,69.10
2022-10-29T19:53:51.932Z,69.40
2022-10-29T19:56:19.701Z,69.20
2022-10-29T19:58:46.802Z,69.20
2022-10-29T20:01:16.266Z,69.20
2022-10-29T20:03:43.835Z,70.00
2022-10-29T20:06:10.862Z,69.30
2022-10-29T20:08:37.606Z,69.90
2022-10-29T20:11:05.366Z,69.30
2022-10-29T20:13:32.309Z,69.50
2022-10-29T20:15:59.023Z,69.20
2022-10-29T20:18:25.788Z,69.20
2022-10-29T20:20:58.682Z,69.10
2022-10-29T20:23:28.166Z,69.60
2022-10-29T20:25:55.139Z,69.00
2022-10-29T20:28:21.837Z,69.00
2022-10-29T20:30:48.527Z,69.10
2022-10-29T20:33:15.248Z,68.90
2022-10-29T20:35:41.941Z,68.90
2022-10-29T20:38:08.628Z,68.80
2022-10-29T20:40:35.431Z,68.80
2022-10-29T20:43:02.201Z,68.60
2022-10-29T20:45:28.875Z,68.50
2022-10-29T20:47:56.196Z,68.60
2022-10-29T20:50:23.105Z,68.60
2022-10-29T20:52:51.265Z,68.40
2022-10-29T20:55:17.933Z,68.70
2022-10-29T20:57:44.620Z,68.30
2022-10-29T21:00:11.648Z,68.20
2022-10-29T21:02:38.379Z,68.20
2022-10-29T21:05:05.265Z,68.50
2022-10-29T21:07:31.951Z,68.20
2022-10-29T21:09:58.677Z,68.00
2022-10-29T21:12:25.392Z,67.80
2022-10-29T21:14:52.043Z,67.90
2022-10-29T21:17:18.676Z,68.00
2022-10-29T21:19:45.320Z,67.90
2022-10-29T21:22:14.753Z,68.00
2022-10-29T21:24:44.546Z,68.00
2022-10-29T21:27:12.390Z,68.40
2022-10-29T21:29:39.196Z,68.10
2022-10-29T21:32:06.226Z,68.20
2022-10-29T21:34:32.984Z,68.20
2022-10-29T21:36:59.651Z,68.60
2022-10-29T21:39:27.542Z,68.10
2022-10-29T21:41:54.241Z,68.70
2022-10-29T21:44:20.955Z,68.20
2022-10-29T21:46:47.616Z,68.20
2022-10-29T21:49:14.250Z,68.10
2022-10-29T21:51:40.885Z,68.20
2022-10-29T21:54:07.689Z,68.40
2022-10-29T21:56:34.326Z,68.40
2022-10-29T21:59:01.080Z,68.70
2022-10-29T22:01:27.866Z,68.60
2022-10-29T22:03:54.701Z,68.40
2022-10-29T22:06:23.860Z,68.40
2022-10-29T22:08:55.883Z,68.80
2022-10-29T22:11:22.994Z,68.90
2022-10-29T22:13:49.744Z,68.40
2022-10-29T22:16:16.535Z,68.90
2022-10-29T22:18:43.449Z,68.30
2022-10-29T22:21:14.538Z,68.10
2022-10-29T22:23:45.944Z,68.90
2022-10-29T22:26:14.898Z,68.40
2022-10-29T22:28:41.958Z,68.70
2022-10-29T22:31:09.425Z,68.30
2022-10-29T22:33:36.132Z,68.50
2022-10-29T22:36:13.330Z,68.40
2022-10-29T22:38:40.328Z,68.90
2022-10-29T22:41:09.365Z,68.60
2022-10-29T22:43:37.078Z,68.90
2022-10-29T22:46:05.200Z,68.70
2022-10-29T22:48:32.349Z,69.00
2022-10-29T22:51:07.175Z,68.90
2022-10-29T22:53:34.298Z,69.50
2022-10-29T22:56:02.031Z,68.80
2022-10-29T22:58:29.274Z,68.90
2022-10-29T23:01:11.016Z,68.90
2022-10-29T23:03:39.844Z,69.80
2022-10-29T23:06:08.526Z,69.00
2022-10-29T23:08:35.269Z,69.20
2022-10-29T23:11:39.277Z,69.20
2022-10-29T23:14:06.574Z,69.80
2022-10-29T23:16:34.027Z,69.00
2022-10-29T23:19:03.159Z,69.20
2022-10-29T23:21:30.459Z,69.40
2022-10-29T23:23:57.728Z,69.20
2022-10-29T23:26:25.403Z,69.10
2022-10-29T23:28:52.538Z,69.30
2022-10-29T23:31:24.261Z,69.20
2022-10-29T23:33:53.073Z,69.50
2022-10-29T23:36:22.428Z,69.60
2022-10-29T23:38:57.511Z,69.40
2022-10-29T23:41:24.926Z,69.80
2022-10-29T23:43:51.718Z,69.30
2022-10-29T23:46:18.708Z,69.30
2022-10-29T23:48:45.386Z,69.30
2022-10-29T23:51:12.109Z,69.60
2022-10-29T23:53:38.846Z,69.40
2022-10-29T23:56:05.737Z,69.40
2022-10-29T23:58:32.403Z,69.60
